Time,TemperatureF,DewpointF,PressureIn,WindDirection,WindDirectionDegrees,WindSpeedMPH,WindSpeedGustMPH,Humidity,HourlyPrecipIn,Conditions,Clouds,dailyrainin,SolarRadiationWatts/m^2,SoftwareType,DateUTC
2013-01-02 00:00:00,44.6,44.1,29.92,NNW,338,2.0,8.0,98,0.02,,,0.57,0.0,meteohub,2013-01-02 05:00:00,
2013-01-02 00:02:00,44.6,44.1,29.92,NNW,338,0.0,8.0,98,0.02,,,0.57,0.0,meteohub,2013-01-02 05:02:00,
2013-01-02 00:04:00,44.6,44.1,29.92,North,5,1.0,8.0,98,0.02,,,0.57,0.0,meteohub,2013-01-02 05:04:00,
2013-01-02 00:09:00,44.4,43.9,29.92,ENE,61,1.0,5.0,98,0.02,,,0.00,0.0,meteohub,2013-01-02 05:09:00,
2013-01-02 00:14:00,44.4,43.9,29.91,NNW,327,1.0,3.0,98,0.01,,,0.00,0.0,meteohub,2013-01-02 05:14:00,
2013-01-02 00:19:00,44.4,43.9,29.91,WNW,301,2.0,5.0,98,0.01,,,0.00,0.0,meteohub,2013-01-02 05:19:00,
2013-01-02 00:24:00,44.4,43.9,29.91,NW,325,2.0,5.0,98,0.01,,,0.00,0.0,meteohub,2013-01-02 05:24:00,
2013-01-02 00:29:00,44.4,43.9,29.91,NNW,337,0.0,5.0,98,0.02,,,0.01,0.0,meteohub,2013-01-02 05:29:00,
2013-01-02 00:34:00,44.4,43.9,29.92,WNW,301,2.0,5.0,98,0.02,,,0.01,0.0,meteohub,2013-01-02 05:34:00,
2013-01-02 00:39:00,44.2,43.7,29.92,WNW,301,0.0,5.0,98,0.02,,,0.02,0.0,meteohub,2013-01-02 05:39:00,
2013-01-02 00:44:00,44.2,43.7,29.92,NW,323,1.0,5.0,98,0.02,,,0.02,0.0,meteohub,2013-01-02 05:44:00,
2013-01-02 00:49:00,44.2,43.7,29.92,NNE,13,1.0,3.0,98,0.03,,,0.03,0.0,meteohub,2013-01-02 05:49:00,
2013-01-02 00:55:00,44.2,43.7,29.92,North,0,3.0,4.0,98,0.04,,,0.04,0.0,meteohub,2013-01-02 05:55:00,
2013-01-02 01:00:00,44.2,43.7,29.90,ENE,57,1.0,4.0,98,0.05,,,0.05,0.0,meteohub,2013-01-02 06:00:00,
2013-01-02 01:05:00,44.2,43.7,29.90,NNE,28,1.0,4.0,98,0.05,,,0.05,0.0,meteohub,2013-01-02 06:05:00,
2013-01-02 01:10:00,44.2,43.7,29.90,WNW,296,2.0,3.0,98,0.06,,,0.06,0.0,meteohub,2013-01-02 06:10:00,
2013-01-02 01:15:00,44.1,43.5,29.87,NE,51,0.0,3.0,98,0.06,,,0.06,0.0,meteohub,2013-01-02 06:15:00,
2013-01-02 01:20:00,44.1,43.5,29.89,NNW,329,0.0,3.0,98,0.05,,,0.06,0.0,meteohub,2013-01-02 06:20:00,
2013-01-02 01:25:00,43.9,43.3,29.89,NNW,330,1.0,3.0,98,0.05,,,0.06,0.0,meteohub,2013-01-02 06:25:00,
2013-01-02 01:30:00,43.9,43.3,29.88,NNW,330,2.0,3.0,98,0.05,,,0.06,0.0,meteohub,2013-01-02 06:30:00,
2013-01-02 01:35:00,43.9,43.3,29.88,North,5,0.0,3.0,98,0.04,,,0.06,0.0,meteohub,2013-01-02 06:35:00,
2013-01-02 01:40:00,43.7,43.2,29.88,North,5,1.0,3.0,98,0.04,,,0.06,0.0,meteohub,2013-01-02 06:40:00,
2013-01-02 01:45:00,43.7,43.2,29.89,NE,38,2.0,3.0,98,0.03,,,0.06,0.0,meteohub,2013-01-02 06:45:00,
2013-01-02 01:50:00,43.7,43.2,29.88,NE,46,1.0,3.0,98,0.02,,,0.06,0.0,meteohub,2013-01-02 06:50:00,
2013-01-02 01:55:00,43.9,43.2,29.88,North,10,2.0,4.0,97,0.01,,,0.06,0.0,meteohub,2013-01-02 06:55:00,
2013-01-02 02:00:00,43.9,43.2,29.89,NNE,17,1.0,4.0,97,0.01,,,0.06,0.0,meteohub,2013-01-02 07:00:00,
2013-01-02 02:05:00,43.9,43.2,29.88,NNE,17,0.0,3.0,97,0.01,,,0.06,0.0,meteohub,2013-01-02 07:05:00,
2013-01-02 02:11:00,43.9,43.2,29.90,NNE,17,2.0,3.0,97,0.00,,,0.06,0.0,meteohub,2013-01-02 07:11:00,
2013-01-02 02:16:00,43.7,43.0,29.89,NNE,30,2.0,3.0,97,0.00,,,0.06,0.0,meteohub,2013-01-02 07:16:00,
2013-01-02 02:21:00,43.7,43.0,29.90,NE,36,1.0,4.0,97,0.00,,,0.06,0.0,meteohub,2013-01-02 07:21:00,
2013-01-02 02:26:00,43.9,43.2,29.90,NE,36,1.0,4.0,97,0.00,,,0.06,0.0,meteohub,2013-01-02 07:26:00,
2013-01-02 02:31:00,43.9,43.2,29.89,NE,36,1.0,4.0,97,0.00,,,0.06,0.0,meteohub,2013-01-02 07:31:00,
2013-01-02 02:36:00,43.9,43.2,29.90,NE,36,1.0,2.0,97,0.00,,,0.06,0.0,meteohub,2013-01-02 07:36:00,
2013-01-02 02:41:00,43.9,43.2,29.91,NE,36,1.0,2.0,97,0.00,,,0.06,0.0,meteohub,2013-01-02 07:41:00,
2013-01-02 02:46:00,43.9,43.2,29.90,NE,36,1.0,3.0,97,0.00,,,0.06,0.0,meteohub,2013-01-02 07:46:00,
2013-01-02 02:51:00,44.1,43.3,29.90,NNE,14,0.0,3.0,97,0.00,,,0.06,0.0,meteohub,2013-01-02 07:51:00,
2013-01-02 02:56:00,44.1,43.0,29.91,NNE,14,0.0,3.0,96,0.00,,,0.06,0.0,meteohub,2013-01-02 07:56:00,
2013-01-02 03:01:00,44.1,43.0,29.91,NNE,30,0.0,3.0,96,0.00,,,0.06,0.0,meteohub,2013-01-02 08:01:00,
2013-01-02 03:06:00,43.9,42.8,29.92,NNE,30,1.0,3.0,96,0.00,,,0.06,0.0,meteohub,2013-01-02 08:06:00,
2013-01-02 03:11:00,44.1,43.0,29.91,NE,36,1.0,3.0,96,0.00,,,0.06,0.0,meteohub,2013-01-02 08:11:00,
2013-01-02 03:16:00,43.9,42.8,29.91,NE,36,1.0,4.0,96,0.00,,,0.06,0.0,meteohub,2013-01-02 08:16:00,
2013-01-02 03:22:00,43.9,42.8,29.91,NE,36,0.0,4.0,96,0.00,,,0.06,0.0,meteohub,2013-01-02 08:22:00,
2013-01-02 03:27:00,43.7,42.6,29.91,NE,36,1.0,3.0,96,0.00,,,0.06,0.0,meteohub,2013-01-02 08:27:00,
2013-01-02 03:32:00,43.5,42.4,29.91,ENE,68,2.0,3.0,96,0.00,,,0.06,0.0,meteohub,2013-01-02 08:32:00,
2013-01-02 03:37:00,43.5,42.4,29.91,NE,36,1.0,5.0,96,0.00,,,0.06,0.0,meteohub,2013-01-02 08:37:00,
2013-01-02 03:42:00,43.5,42.4,29.91,West,279,2.0,6.0,96,0.00,,,0.06,0.0,meteohub,2013-01-02 08:42:00,
2013-01-02 03:47:00,43.3,42.3,29.91,NE,44,3.0,6.0,96,0.00,,,0.06,0.0,meteohub,2013-01-02 08:47:00,
2013-01-02 03:52:00,43.3,42.1,29.91,NNE,24,1.0,6.0,95,0.00,,,0.06,0.0,meteohub,2013-01-02 08:52:00,
2013-01-02 03:57:00,43.2,42.1,29.91,NW,307,0.0,6.0,96,0.00,,,0.06,0.0,meteohub,2013-01-02 08:57:00,
2013-01-02 04:02:00,43.2,42.1,29.91,WNW,283,1.0,5.0,96,0.00,,,0.06,0.0,meteohub,2013-01-02 09:02:00,
2013-01-02 04:07:00,43.0,41.9,29.91,SE,127,1.0,5.0,96,0.00,,,0.06,0.0,meteohub,2013-01-02 09:07:00,
2013-01-02 04:12:00,43.0,41.9,29.92,WNW,300,1.0,3.0,96,0.00,,,0.06,0.0,meteohub,2013-01-02 09:12:00,
2013-01-02 04:17:00,43.0,41.9,29.91,WNW,300,1.0,3.0,96,0.00,,,0.06,0.0,meteohub,2013-01-02 09:17:00,
2013-01-02 04:22:00,42.8,41.7,29.91,North,355,1.0,4.0,96,0.00,,,0.06,0.0,meteohub,2013-01-02 09:22:00,
2013-01-02 04:27:00,42.6,41.5,29.92,North,355,2.0,6.0,96,0.00,,,0.06,0.0,meteohub,2013-01-02 09:27:00,
2013-01-02 04:32:00,42.8,41.7,29.93,NNW,327,0.0,7.0,96,0.00,,,0.06,0.0,meteohub,2013-01-02 09:32:00,
2013-01-02 04:37:00,42.6,41.5,29.92,NE,45,0.0,7.0,96,0.00,,,0.06,0.0,meteohub,2013-01-02 09:37:00,
2013-01-02 04:42:00,42.6,41.5,29.92,North,0,0.0,7.0,96,0.00,,,0.06,0.0,meteohub,2013-01-02 09:42:00,
2013-01-02 04:47:00,42.4,41.4,29.91,North,5,0.0,4.0,96,0.00,,,0.06,0.0,meteohub,2013-01-02 09:47:00,
2013-01-02 04:52:00,42.4,41.4,29.92,South,173,0.0,4.0,96,0.00,,,0.06,0.0,meteohub,2013-01-02 09:52:00,
2013-01-02 04:57:00,42.4,41.4,29.93,South,173,0.0,4.0,96,0.00,,,0.06,0.0,meteohub,2013-01-02 09:57:00,
2013-01-02 05:02:00,42.3,41.2,29.93,ENE,72,1.0,4.0,96,0.00,,,0.06,0.0,meteohub,2013-01-02 10:02:00,
2013-01-02 05:07:00,42.3,41.2,29.93,SW,227,0.0,3.0,96,0.00,,,0.06,0.0,meteohub,2013-01-02 10:07:00,
2013-01-02 05:12:00,42.3,41.2,29.93,SSE,155,0.0,3.0,96,0.00,,,0.06,0.0,meteohub,2013-01-02 10:12:00,
2013-01-02 05:17:00,42.1,41.0,29.94,NE,46,1.0,3.0,96,0.00,,,0.06,0.0,meteohub,2013-01-02 10:17:00,
2013-01-02 05:22:00,42.1,41.0,29.94,NE,46,1.0,3.0,96,0.00,,,0.06,0.0,meteohub,2013-01-02 10:22:00,
2013-01-02 05:27:00,41.7,40.6,29.93,ENE,73,2.0,3.0,96,0.00,,,0.06,0.0,meteohub,2013-01-02 10:27:00,
2013-01-02 05:32:00,41.5,40.3,29.93,East,86,1.0,7.0,95,0.00,,,0.06,0.0,meteohub,2013-01-02 10:32:00,
2013-01-02 05:37:00,41.5,40.3,29.92,SE,142,2.0,7.0,95,0.00,,,0.06,0.0,meteohub,2013-01-02 10:37:00,
2013-01-02 05:42:00,41.5,40.3,29.93,East,93,2.0,7.0,95,0.00,,,0.06,0.0,meteohub,2013-01-02 10:42:00,
2013-01-02 05:47:00,41.2,39.6,29.94,NNE,27,3.0,4.0,94,0.00,,,0.06,0.0,meteohub,2013-01-02 10:47:00,
2013-01-02 05:52:00,41.0,39.4,29.93,NNE,28,1.0,4.0,94,0.00,,,0.06,0.0,meteohub,2013-01-02 10:52:00,
2013-01-02 05:57:00,40.8,39.0,29.93,NE,46,0.0,4.0,93,0.00,,,0.06,0.0,meteohub,2013-01-02 10:57:00,
2013-01-02 06:02:00,40.5,38.7,29.93,NNE,30,6.0,6.0,93,0.00,,,0.06,0.0,meteohub,2013-01-02 11:02:00,
2013-01-02 06:07:00,40.3,38.5,29.93,NNW,347,3.0,6.0,93,0.00,,,0.06,0.0,meteohub,2013-01-02 11:07:00,
2013-01-02 06:12:00,40.1,38.3,29.93,NNE,21,4.0,6.0,93,0.00,,,0.06,0.0,meteohub,2013-01-02 11:12:00,
2013-01-02 06:17:00,39.9,38.1,29.93,NE,50,2.0,7.0,93,0.00,,,0.06,0.0,meteohub,2013-01-02 11:17:00,
2013-01-02 06:22:00,39.9,38.1,29.93,NE,43,3.0,7.0,93,0.00,,,0.06,0.0,meteohub,2013-01-02 11:22:00,
2013-01-02 06:27:00,39.7,37.9,29.92,NE,36,0.0,5.0,93,0.00,,,0.06,0.0,meteohub,2013-01-02 11:27:00,
2013-01-02 06:32:00,39.6,37.9,29.93,NE,34,0.0,4.0,94,0.00,,,0.06,0.0,meteohub,2013-01-02 11:32:00,
2013-01-02 06:37:00,39.4,37.8,29.93,NE,42,0.0,3.0,94,0.00,,,0.06,0.0,meteohub,2013-01-02 11:37:00,
2013-01-02 06:42:00,39.0,37.4,29.93,NE,42,0.0,3.0,94,0.00,,,0.06,0.0,meteohub,2013-01-02 11:42:00,
2013-01-02 06:47:00,39.0,37.8,29.93,West,269,1.0,5.0,95,0.00,,,0.06,0.0,meteohub,2013-01-02 11:47:00,
2013-01-02 06:52:00,38.8,37.6,29.93,NW,306,0.0,5.0,95,0.00,,,0.06,0.0,meteohub,2013-01-02 11:52:00,
2013-01-02 06:57:00,39.0,37.8,29.93,WNW,300,2.0,5.0,95,0.00,,,0.06,0.0,meteohub,2013-01-02 11:57:00,
2013-01-02 07:02:00,39.4,37.8,29.93,NW,312,0.0,6.0,94,0.00,,,0.06,0.0,meteohub,2013-01-02 12:02:00,
2013-01-02 07:07:00,39.4,37.8,29.93,NNW,330,2.0,6.0,94,0.00,,,0.06,0.0,meteohub,2013-01-02 12:07:00,
2013-01-02 07:12:00,39.4,37.8,29.94,WNW,297,2.0,5.0,94,0.00,,,0.06,0.0,meteohub,2013-01-02 12:12:00,
2013-01-02 07:17:00,39.4,37.8,29.94,WNW,291,1.0,3.0,94,0.00,,,0.06,0.0,meteohub,2013-01-02 12:17:00,
2013-01-02 07:22:00,39.4,37.8,29.94,North,355,0.0,3.0,94,0.00,,,0.06,0.0,meteohub,2013-01-02 12:22:00,
2013-01-02 07:27:00,39.6,37.9,29.94,NW,311,0.0,3.0,94,0.00,,,0.06,0.0,meteohub,2013-01-02 12:27:00,
2013-01-02 07:32:00,39.4,37.8,29.95,NNW,341,1.0,3.0,94,0.00,,,0.06,0.0,meteohub,2013-01-02 12:32:00,
2013-01-02 07:37:00,39.4,37.8,29.95,NNW,346,0.0,3.0,94,0.00,,,0.06,0.0,meteohub,2013-01-02 12:37:00,
2013-01-02 07:42:00,39.4,37.8,29.96,NNE,28,2.0,2.0,94,0.00,,,0.06,0.0,meteohub,2013-01-02 12:42:00,
2013-01-02 07:47:00,39.4,37.8,29.96,North,355,3.0,3.0,94,0.00,,,0.06,0.0,meteohub,2013-01-02 12:47:00,
2013-01-02 07:52:00,39.6,37.8,29.96,North,9,2.0,4.0,93,0.00,,,0.06,0.0,meteohub,2013-01-02 12:52:00,
2013-01-02 07:57:00,39.6,37.8,29.96,North,10,1.0,5.0,93,0.00,,,0.06,5.0,meteohub,2013-01-02 12:57:00,
2013-01-02 08:02:00,39.4,37.6,29.96,ENE,61,3.0,5.0,93,0.00,,,0.06,7.0,meteohub,2013-01-02 13:02:00,
2013-01-02 08:07:00,39.4,37.6,29.96,NNW,336,2.0,4.0,93,0.00,,,0.06,11.0,meteohub,2013-01-02 13:07:00,
2013-01-02 08:12:00,39.4,37.6,29.96,WNW,286,1.0,5.0,93,0.00,,,0.06,12.0,meteohub,2013-01-02 13:12:00,
2013-01-02 08:17:00,39.4,37.6,29.97,North,351,0.0,5.0,93,0.00,,,0.06,16.0,meteohub,2013-01-02 13:17:00,
2013-01-02 08:22:00,39.4,37.6,29.98,WNW,303,2.0,8.0,93,0.00,,,0.06,23.0,meteohub,2013-01-02 13:22:00,
2013-01-02 08:27:00,39.2,37.4,29.98,NNE,19,6.0,8.0,93,0.00,,,0.06,26.0,meteohub,2013-01-02 13:27:00,
2013-01-02 08:33:00,39.0,37.4,29.98,NW,324,1.0,8.0,94,0.00,,,0.06,19.0,meteohub,2013-01-02 13:33:00,
2013-01-02 08:38:00,38.8,37.2,29.98,West,280,1.0,8.0,94,0.00,,,0.06,18.0,meteohub,2013-01-02 13:38:00,
2013-01-02 08:43:00,38.7,37.0,29.99,WNW,298,4.0,8.0,94,0.00,,,0.06,14.0,meteohub,2013-01-02 13:43:00,
2013-01-02 08:48:00,38.7,37.0,29.99,NNE,15,0.0,8.0,94,0.00,,,0.06,16.0,meteohub,2013-01-02 13:48:00,
2013-01-02 08:53:00,38.1,36.5,30.00,NNE,15,0.0,5.0,94,0.00,,,0.06,54.0,meteohub,2013-01-02 13:53:00,
2013-01-02 08:59:00,38.1,36.9,30.00,ESE,121,0.0,5.0,95,0.00,,,0.06,72.0,meteohub,2013-01-02 13:59:00,
2013-01-02 09:04:00,38.7,37.6,30.00,ESE,121,0.0,4.0,96,0.00,,,0.06,40.0,meteohub,2013-01-02 14:04:00,
2013-01-02 09:09:00,38.7,37.4,29.99,WSW,242,0.0,3.0,95,0.00,,,0.06,19.0,meteohub,2013-01-02 14:09:00,
2013-01-02 09:14:00,38.5,37.2,30.00,WSW,242,0.0,3.0,95,0.00,,,0.06,60.0,meteohub,2013-01-02 14:14:00,
2013-01-02 09:19:00,38.7,37.4,30.00,WSW,241,1.0,3.0,95,0.00,,,0.06,167.0,meteohub,2013-01-02 14:19:00,
2013-01-02 09:24:00,39.0,37.9,29.99,WSW,241,0.0,3.0,96,0.00,,,0.06,95.0,meteohub,2013-01-02 14:24:00,
2013-01-02 09:29:00,39.4,38.3,29.99,WSW,241,1.0,2.0,96,0.00,,,0.06,111.0,meteohub,2013-01-02 14:29:00,
2013-01-02 09:34:00,39.6,38.5,29.99,SW,230,1.0,2.0,96,0.00,,,0.06,81.0,meteohub,2013-01-02 14:34:00,
2013-01-02 09:39:00,39.6,38.5,30.00,SSW,205,1.0,2.0,96,0.00,,,0.06,86.0,meteohub,2013-01-02 14:39:00,
2013-01-02 09:44:00,39.7,38.7,30.01,SSW,205,1.0,2.0,96,0.00,,,0.06,70.0,meteohub,2013-01-02 14:44:00,
2013-01-02 09:49:00,39.6,38.5,30.02,SSE,165,2.0,2.0,96,0.00,,,0.06,70.0,meteohub,2013-01-02 14:49:00,
2013-01-02 09:54:00,39.4,38.3,30.01,SSE,165,1.0,2.0,96,0.00,,,0.06,63.0,meteohub,2013-01-02 14:54:00,
2013-01-02 10:00:00,39.4,38.3,30.03,SSE,164,1.0,3.0,96,0.00,,,0.06,111.0,meteohub,2013-01-02 15:00:00,
2013-01-02 10:05:00,39.4,38.3,30.02,ESE,116,1.0,5.0,96,0.00,,,0.06,102.0,meteohub,2013-01-02 15:05:00,
2013-01-02 10:10:00,39.4,38.3,30.03,SSE,153,0.0,5.0,96,0.00,,,0.06,95.0,meteohub,2013-01-02 15:10:00,
2013-01-02 10:15:00,39.4,38.7,30.02,SSE,153,2.0,5.0,97,0.00,,,0.06,130.0,meteohub,2013-01-02 15:15:00,
2013-01-02 10:20:00,39.4,38.7,30.02,SSW,211,0.0,3.0,97,0.00,,,0.06,127.0,meteohub,2013-01-02 15:20:00,
2013-01-02 10:25:00,39.6,38.8,30.02,SSW,211,0.0,3.0,97,0.00,,,0.06,127.0,meteohub,2013-01-02 15:25:00,
2013-01-02 10:30:00,39.9,39.2,30.04,SSW,211,0.0,3.0,97,0.00,,,0.06,137.0,meteohub,2013-01-02 15:30:00,
2013-01-02 10:35:00,41.4,40.6,30.03,West,267,1.0,2.0,97,0.00,,,0.06,454.0,meteohub,2013-01-02 15:35:00,
2013-01-02 10:40:00,40.8,39.2,30.02,SSW,204,0.0,3.0,94,0.00,,,0.06,123.0,meteohub,2013-01-02 15:40:00,
2013-01-02 10:45:00,40.6,39.4,30.03,NW,324,1.0,3.0,95,0.00,,,0.06,144.0,meteohub,2013-01-02 15:45:00,
2013-01-02 10:50:00,40.5,39.2,30.02,ENE,57,1.0,3.0,95,0.00,,,0.06,116.0,meteohub,2013-01-02 15:50:00,
2013-01-02 10:56:00,40.1,38.8,30.01,East,86,0.0,4.0,95,0.00,,,0.06,104.0,meteohub,2013-01-02 15:56:00,
2013-01-02 11:01:00,39.9,38.8,30.03,West,273,1.0,4.0,96,0.00,,,0.06,153.0,meteohub,2013-01-02 16:01:00,
2013-01-02 11:06:00,39.9,38.8,30.04,ENE,74,2.0,5.0,96,0.00,,,0.06,185.0,meteohub,2013-01-02 16:06:00,
2013-01-02 11:11:00,40.1,39.0,30.03,East,99,2.0,5.0,96,0.00,,,0.06,183.0,meteohub,2013-01-02 16:11:00,
2013-01-02 11:16:00,39.6,38.5,30.03,East,98,2.0,5.0,96,0.00,,,0.06,88.0,meteohub,2013-01-02 16:16:00,
2013-01-02 11:21:00,39.6,38.5,30.02,East,88,2.0,5.0,96,0.00,,,0.06,163.0,meteohub,2013-01-02 16:21:00,
2013-01-02 11:26:00,39.7,38.7,30.02,ENE,59,0.0,5.0,96,0.00,,,0.06,230.0,meteohub,2013-01-02 16:26:00,
2013-01-02 11:31:00,39.9,39.2,30.02,East,88,1.0,5.0,97,0.00,,,0.06,264.0,meteohub,2013-01-02 16:31:00,
2013-01-02 11:36:00,40.3,39.2,30.02,ESE,107,2.0,5.0,96,0.00,,,0.06,220.0,meteohub,2013-01-02 16:36:00,
2013-01-02 11:41:00,40.5,39.4,30.02,NE,56,2.0,5.0,96,0.00,,,0.06,206.0,meteohub,2013-01-02 16:41:00,
2013-01-02 11:47:00,40.3,39.2,30.02,ENE,75,1.0,3.0,96,0.00,,,0.06,223.0,meteohub,2013-01-02 16:47:00,
2013-01-02 11:52:00,40.5,39.4,30.03,NE,51,2.0,5.0,96,0.00,,,0.06,220.0,meteohub,2013-01-02 16:52:00,
2013-01-02 11:57:00,41.4,40.3,30.03,NE,51,3.0,5.0,96,0.00,,,0.06,220.0,meteohub,2013-01-02 16:57:00,
2013-01-02 12:02:00,42.1,40.8,30.03,NE,51,0.0,4.0,95,0.00,,,0.06,199.0,meteohub,2013-01-02 17:02:00,
2013-01-02 12:07:00,42.3,40.6,30.02,ENE,71,1.0,3.0,94,0.00,,,0.06,176.0,meteohub,2013-01-02 17:07:00,
2013-01-02 12:12:00,42.4,40.6,30.01,ENE,71,2.0,3.0,93,0.00,,,0.06,163.0,meteohub,2013-01-02 17:12:00,
2013-01-02 12:17:00,42.1,40.3,30.01,NE,44,3.0,3.0,93,0.00,,,0.06,176.0,meteohub,2013-01-02 17:17:00,
2013-01-02 12:22:00,42.1,40.3,30.00,NE,44,4.0,5.0,93,0.00,,,0.06,185.0,meteohub,2013-01-02 17:22:00,
2013-01-02 12:27:00,42.3,40.5,30.01,NE,44,1.0,5.0,93,0.00,,,0.06,190.0,meteohub,2013-01-02 17:27:00,
2013-01-02 12:32:00,42.4,40.6,30.01,NE,44,1.0,5.0,93,0.00,,,0.06,227.0,meteohub,2013-01-02 17:32:00,
2013-01-02 12:37:00,42.8,40.6,30.01,NW,319,3.0,4.0,92,0.00,,,0.06,244.0,meteohub,2013-01-02 17:37:00,
2013-01-02 12:42:00,42.4,40.3,30.00,ESE,111,1.0,3.0,92,0.00,,,0.06,251.0,meteohub,2013-01-02 17:42:00,
2013-01-02 12:47:00,42.6,40.8,30.00,East,79,3.0,3.0,93,0.00,,,0.06,213.0,meteohub,2013-01-02 17:47:00,
2013-01-02 12:52:00,43.0,41.2,30.00,East,79,0.0,3.0,93,0.00,,,0.06,227.0,meteohub,2013-01-02 17:52:00,
2013-01-02 12:57:00,43.5,41.9,30.01,SSE,167,0.0,3.0,94,0.00,,,0.06,186.0,meteohub,2013-01-02 17:57:00,
2013-01-02 13:02:00,43.5,41.7,30.00,SSE,167,0.0,3.0,93,0.00,,,0.06,172.0,meteohub,2013-01-02 18:02:00,
2013-01-02 13:07:00,43.3,41.5,30.00,SSE,167,1.0,2.0,93,0.00,,,0.06,200.0,meteohub,2013-01-02 18:07:00,
2013-01-02 13:12:00,43.2,41.4,29.99,SSE,167,1.0,3.0,93,0.00,,,0.06,176.0,meteohub,2013-01-02 18:12:00,
2013-01-02 13:17:00,43.0,41.4,29.99,SSE,167,1.0,3.0,94,0.00,,,0.06,192.0,meteohub,2013-01-02 18:17:00,
2013-01-02 13:22:00,43.0,41.4,29.99,SSE,167,0.0,3.0,94,0.00,,,0.06,206.0,meteohub,2013-01-02 18:22:00,
2013-01-02 13:27:00,42.4,39.9,30.00,SSE,167,0.0,3.0,91,0.00,,,0.06,165.0,meteohub,2013-01-02 18:27:00,
2013-01-02 13:32:00,42.3,39.6,29.99,SSE,167,1.0,3.0,90,0.00,,,0.06,313.0,meteohub,2013-01-02 18:32:00,
2013-01-02 13:37:00,43.2,39.2,29.99,East,98,0.0,3.0,86,0.00,,,0.06,202.0,meteohub,2013-01-02 18:37:00,
2013-01-02 13:42:00,43.5,40.5,29.99,SSW,195,0.0,3.0,89,0.00,,,0.06,216.0,meteohub,2013-01-02 18:42:00,
2013-01-02 13:47:00,43.3,40.6,29.99,SSE,150,1.0,3.0,90,0.00,,,0.06,211.0,meteohub,2013-01-02 18:47:00,
2013-01-02 13:52:00,43.0,39.9,29.99,SSE,152,0.0,3.0,89,0.00,,,0.06,223.0,meteohub,2013-01-02 18:52:00,
2013-01-02 13:57:00,42.8,40.1,29.99,SW,221,2.0,3.0,90,0.00,,,0.06,185.0,meteohub,2013-01-02 18:57:00,
2013-01-02 14:02:00,42.4,39.7,29.99,SSW,209,0.0,3.0,90,0.00,,,0.06,178.0,meteohub,2013-01-02 19:02:00,
2013-01-02 14:07:00,43.0,40.5,29.99,SSW,211,1.0,3.0,91,0.00,,,0.06,137.0,meteohub,2013-01-02 19:07:00,
2013-01-02 14:12:00,43.2,40.6,29.99,SSW,199,2.0,3.0,91,0.00,,,0.06,155.0,meteohub,2013-01-02 19:12:00,
2013-01-02 14:17:00,43.2,40.5,29.99,SSE,159,2.0,3.0,90,0.00,,,0.06,207.0,meteohub,2013-01-02 19:17:00,
2013-01-02 14:22:00,43.5,40.8,29.99,SSW,203,2.0,4.0,90,0.00,,,0.06,213.0,meteohub,2013-01-02 19:22:00,
2013-01-02 14:27:00,44.2,41.2,29.99,SW,217,2.0,4.0,89,0.00,,,0.06,232.0,meteohub,2013-01-02 19:27:00,
2013-01-02 14:32:00,44.2,41.0,29.99,SE,144,3.0,5.0,88,0.00,,,0.06,148.0,meteohub,2013-01-02 19:32:00,
2013-01-02 14:37:00,44.1,40.8,29.99,South,184,2.0,5.0,88,0.00,,,0.06,174.0,meteohub,2013-01-02 19:37:00,
2013-01-02 14:42:00,43.5,39.9,30.00,South,185,0.0,4.0,87,0.00,,,0.06,134.0,meteohub,2013-01-02 19:42:00,
2013-01-02 14:47:00,43.7,40.1,30.00,SW,222,0.0,4.0,87,0.00,,,0.06,121.0,meteohub,2013-01-02 19:47:00,
2013-01-02 14:52:00,43.3,39.7,30.00,South,181,1.0,4.0,87,0.00,,,0.06,114.0,meteohub,2013-01-02 19:52:00,
2013-01-02 14:57:00,43.2,39.6,29.99,SE,143,1.0,3.0,87,0.00,,,0.06,121.0,meteohub,2013-01-02 19:57:00,
2013-01-02 15:02:00,43.3,40.1,29.99,South,184,1.0,4.0,88,0.00,,,0.06,123.0,meteohub,2013-01-02 20:02:00,
2013-01-02 15:07:00,43.5,40.5,29.99,SW,229,2.0,4.0,89,0.00,,,0.06,118.0,meteohub,2013-01-02 20:07:00,
2013-01-02 15:12:00,43.5,40.8,29.99,South,173,1.0,4.0,90,0.00,,,0.06,93.0,meteohub,2013-01-02 20:12:00,
2013-01-02 15:17:00,43.3,40.1,30.00,ESE,117,1.0,4.0,88,0.00,,,0.06,76.0,meteohub,2013-01-02 20:17:00,
2013-01-02 15:23:00,43.3,40.3,30.01,SSW,200,1.0,4.0,89,0.00,,,0.06,74.0,meteohub,2013-01-02 20:23:00,
2013-01-02 15:28:00,43.2,40.1,30.01,SE,128,2.0,4.0,89,0.00,,,0.06,70.0,meteohub,2013-01-02 20:28:00,
2013-01-02 15:33:00,43.2,40.1,30.01,ESE,116,2.0,4.0,89,0.00,,,0.06,53.0,meteohub,2013-01-02 20:33:00,
2013-01-02 15:38:00,43.0,39.9,30.01,ESE,113,0.0,3.0,89,0.00,,,0.06,65.0,meteohub,2013-01-02 20:38:00,
2013-01-02 15:43:00,42.8,39.6,30.01,SSW,204,3.0,4.0,88,0.00,,,0.06,58.0,meteohub,2013-01-02 20:43:00,
2013-01-02 15:48:00,42.6,39.9,30.00,SSW,207,1.0,4.0,90,0.00,,,0.06,58.0,meteohub,2013-01-02 20:48:00,
2013-01-02 15:53:00,42.6,39.9,30.00,SSW,200,1.0,4.0,90,0.00,,,0.06,53.0,meteohub,2013-01-02 20:53:00,
2013-01-02 15:58:00,42.6,40.1,30.00,SSW,201,1.0,3.0,91,0.00,,,0.06,46.0,meteohub,2013-01-02 20:58:00,
2013-01-02 16:03:00,42.6,40.1,30.00,South,175,0.0,2.0,91,0.00,,,0.06,42.0,meteohub,2013-01-02 21:03:00,
2013-01-02 16:08:00,42.6,40.5,30.01,WSW,245,0.0,2.0,92,0.00,,,0.06,37.0,meteohub,2013-01-02 21:08:00,
2013-01-02 16:13:00,42.6,40.5,30.01,South,178,1.0,2.0,92,0.00,,,0.06,33.0,meteohub,2013-01-02 21:13:00,
2013-01-02 16:19:00,42.4,40.3,30.01,South,179,0.0,4.0,92,0.00,,,0.06,37.0,meteohub,2013-01-02 21:19:00,
2013-01-02 16:24:00,42.4,40.6,30.01,South,179,2.0,4.0,93,0.00,,,0.06,30.0,meteohub,2013-01-02 21:24:00,
2013-01-02 16:29:00,42.6,40.8,30.01,SSW,201,0.0,4.0,93,0.00,,,0.06,32.0,meteohub,2013-01-02 21:29:00,
2013-01-02 16:34:00,42.6,40.8,30.01,SW,215,3.0,3.0,93,0.00,,,0.06,25.0,meteohub,2013-01-02 21:34:00,
2013-01-02 16:39:00,42.4,40.6,30.02,SE,146,0.0,3.0,93,0.00,,,0.06,18.0,meteohub,2013-01-02 21:39:00,
2013-01-02 16:44:00,42.3,40.5,30.01,SE,146,0.0,4.0,93,0.00,,,0.06,11.0,meteohub,2013-01-02 21:44:00,
2013-01-02 16:49:00,42.3,40.5,30.01,SE,146,2.0,4.0,93,0.00,,,0.06,14.0,meteohub,2013-01-02 21:49:00,
2013-01-02 16:54:00,42.3,40.6,30.01,SE,146,0.0,4.0,94,0.00,,,0.06,7.0,meteohub,2013-01-02 21:54:00,
2013-01-02 16:59:00,42.1,40.5,30.01,SE,146,1.0,2.0,94,0.00,,,0.06,7.0,meteohub,2013-01-02 21:59:00,
2013-01-02 17:04:00,42.1,40.5,30.03,South,172,0.0,2.0,94,0.00,,,0.06,16.0,meteohub,2013-01-02 22:04:00,
2013-01-02 17:10:00,42.1,40.8,30.03,SE,128,1.0,2.0,95,0.00,,,0.06,11.0,meteohub,2013-01-02 22:10:00,
2013-01-02 17:15:00,42.1,40.8,30.03,SE,129,0.0,2.0,95,0.00,,,0.06,12.0,meteohub,2013-01-02 22:15:00,
2013-01-02 17:20:00,41.7,40.5,30.03,SW,217,2.0,2.0,95,0.00,,,0.06,5.0,meteohub,2013-01-02 22:20:00,
2013-01-02 17:25:00,41.5,40.3,30.01,South,181,1.0,4.0,95,0.00,,,0.06,0.0,meteohub,2013-01-02 22:25:00,
2013-01-02 17:30:00,41.5,40.3,30.01,South,181,0.0,4.0,95,0.00,,,0.06,0.0,meteohub,2013-01-02 22:30:00,
2013-01-02 17:35:00,41.4,40.1,30.02,South,181,0.0,3.0,95,0.00,,,0.06,0.0,meteohub,2013-01-02 22:35:00,
2013-01-02 17:40:00,41.4,40.3,30.03,South,181,1.0,2.0,96,0.00,,,0.06,0.0,meteohub,2013-01-02 22:40:00,
2013-01-02 17:45:00,41.4,40.3,30.03,South,181,0.0,2.0,96,0.00,,,0.06,0.0,meteohub,2013-01-02 22:45:00,
2013-01-02 17:50:00,41.4,40.3,30.03,South,181,0.0,2.0,96,0.00,,,0.06,0.0,meteohub,2013-01-02 22:50:00,
2013-01-02 17:56:00,41.2,40.1,30.04,South,180,0.0,2.0,96,0.00,,,0.06,0.0,meteohub,2013-01-02 22:56:00,
2013-01-02 18:01:00,41.2,40.1,30.04,South,181,0.0,2.0,96,0.00,,,0.06,0.0,meteohub,2013-01-02 23:01:00,
2013-01-02 18:06:00,41.0,39.9,30.04,South,181,0.0,2.0,96,0.00,,,0.06,0.0,meteohub,2013-01-02 23:06:00,
2013-01-02 18:11:00,41.0,39.9,30.04,South,184,0.0,2.0,96,0.00,,,0.06,0.0,meteohub,2013-01-02 23:11:00,
2013-01-02 18:16:00,41.2,40.1,30.03,South,184,1.0,2.0,96,0.00,,,0.06,0.0,meteohub,2013-01-02 23:16:00,
2013-01-02 18:21:00,41.2,40.1,30.03,South,184,1.0,2.0,96,0.00,,,0.06,0.0,meteohub,2013-01-02 23:21:00,
2013-01-02 18:26:00,40.8,39.7,30.03,SE,128,0.0,2.0,96,0.00,,,0.06,0.0,meteohub,2013-01-02 23:26:00,
2013-01-02 18:31:00,40.6,39.6,30.04,ENE,65,0.0,3.0,96,0.00,,,0.06,0.0,meteohub,2013-01-02 23:31:00,
2013-01-02 18:36:00,40.3,39.2,30.04,ENE,65,1.0,3.0,96,0.00,,,0.06,0.0,meteohub,2013-01-02 23:36:00,
2013-01-02 18:41:00,40.3,39.2,30.05,ENE,65,1.0,3.0,96,0.00,,,0.06,0.0,meteohub,2013-01-02 23:41:00,
2013-01-02 18:46:00,40.1,39.0,30.05,ENE,65,0.0,2.0,96,0.00,,,0.06,0.0,meteohub,2013-01-02 23:46:00,
2013-01-02 18:51:00,40.3,39.2,30.05,ENE,65,1.0,3.0,96,0.00,,,0.06,0.0,meteohub,2013-01-02 23:51:00,
2013-01-02 18:56:00,39.9,38.8,30.04,ENE,65,0.0,3.0,96,0.00,,,0.06,0.0,meteohub,2013-01-02 23:56:00,
2013-01-02 19:02:00,39.7,38.7,30.06,ENE,65,0.0,3.0,96,0.00,,,0.06,0.0,meteohub,2013-01-03 00:02:00,
2013-01-02 19:07:00,39.7,38.7,30.05,ENE,65,0.0,2.0,96,0.00,,,0.06,0.0,meteohub,2013-01-03 00:07:00,
2013-01-02 19:12:00,39.9,38.8,30.06,ENE,65,0.0,3.0,96,0.00,,,0.06,0.0,meteohub,2013-01-03 00:12:00,
2013-01-02 19:17:00,39.9,38.8,30.05,ENE,65,1.0,3.0,96,0.00,,,0.06,0.0,meteohub,2013-01-03 00:17:00,
2013-01-02 19:22:00,39.9,38.8,30.06,ENE,65,1.0,2.0,96,0.00,,,0.06,0.0,meteohub,2013-01-03 00:22:00,
2013-01-02 19:27:00,39.9,38.8,30.06,ENE,65,0.0,2.0,96,0.00,,,0.06,0.0,meteohub,2013-01-03 00:27:00,
2013-01-02 19:32:00,39.6,38.5,30.06,ENE,65,0.0,2.0,96,0.00,,,0.06,0.0,meteohub,2013-01-03 00:32:00,
2013-01-02 19:37:00,39.0,37.9,30.07,ENE,65,0.0,2.0,96,0.00,,,0.06,0.0,meteohub,2013-01-03 00:37:00,
2013-01-02 19:42:00,39.0,37.9,30.06,ENE,65,0.0,2.0,96,0.00,,,0.06,0.0,meteohub,2013-01-03 00:42:00,
2013-01-02 19:47:00,38.8,37.8,30.07,ENE,65,0.0,2.0,96,0.00,,,0.06,0.0,meteohub,2013-01-03 00:47:00,
2013-01-02 19:52:00,38.8,37.8,30.07,ENE,65,0.0,2.0,96,0.00,,,0.06,0.0,meteohub,2013-01-03 00:52:00,
2013-01-02 19:57:00,38.7,37.6,30.07,ENE,65,0.0,2.0,96,0.00,,,0.06,0.0,meteohub,2013-01-03 00:57:00,
2013-01-02 20:02:00,38.7,37.6,30.08,ENE,65,0.0,1.0,96,0.00,,,0.06,0.0,meteohub,2013-01-03 01:02:00,
2013-01-02 20:07:00,38.8,37.8,30.07,ENE,65,0.0,3.0,96,0.00,,,0.06,0.0,meteohub,2013-01-03 01:07:00,
2013-01-02 20:12:00,39.4,38.7,30.06,ENE,65,0.0,3.0,97,0.00,,,0.06,0.0,meteohub,2013-01-03 01:12:00,
2013-01-02 20:17:00,39.6,38.8,30.07,ENE,65,0.0,3.0,97,0.00,,,0.06,0.0,meteohub,2013-01-03 01:17:00,
2013-01-02 20:22:00,39.4,38.7,30.07,ENE,65,0.0,1.0,97,0.00,,,0.06,0.0,meteohub,2013-01-03 01:22:00,
2013-01-02 20:27:00,39.6,38.8,30.07,ENE,65,0.0,1.0,97,0.00,,,0.06,0.0,meteohub,2013-01-03 01:27:00,
2013-01-02 20:32:00,39.7,39.0,30.08,ENE,65,0.0,1.0,97,0.00,,,0.06,0.0,meteohub,2013-01-03 01:32:00,
2013-01-02 20:38:00,40.1,39.4,30.08,ENE,65,0.0,0.0,97,0.00,,,0.06,0.0,meteohub,2013-01-03 01:38:00,
2013-01-02 20:43:00,40.3,39.6,30.08,ENE,65,0.0,0.0,97,0.00,,,0.06,0.0,meteohub,2013-01-03 01:43:00,
2013-01-02 20:48:00,40.3,39.6,30.09,ENE,65,0.0,0.0,97,0.00,,,0.06,0.0,meteohub,2013-01-03 01:48:00,
2013-01-02 20:53:00,40.5,39.7,30.08,ENE,65,0.0,1.0,97,0.00,,,0.06,0.0,meteohub,2013-01-03 01:53:00,
2013-01-02 20:58:00,39.9,39.2,30.08,ENE,65,1.0,1.0,97,0.00,,,0.06,0.0,meteohub,2013-01-03 01:58:00,
2013-01-02 21:03:00,39.4,38.7,30.08,ESE,107,2.0,3.0,97,0.00,,,0.06,0.0,meteohub,2013-01-03 02:03:00,
2013-01-02 21:08:00,39.6,38.8,30.08,ESE,107,1.0,3.0,97,0.00,,,0.06,0.0,meteohub,2013-01-03 02:08:00,
2013-01-02 21:13:00,39.7,39.0,30.09,ESE,107,0.0,3.0,97,0.00,,,0.06,0.0,meteohub,2013-01-03 02:13:00,
2013-01-02 21:18:00,39.9,39.2,30.08,ESE,107,0.0,2.0,97,0.00,,,0.06,0.0,meteohub,2013-01-03 02:18:00,
2013-01-02 21:23:00,40.3,39.6,30.08,South,169,1.0,2.0,97,0.00,,,0.06,0.0,meteohub,2013-01-03 02:23:00,
2013-01-02 21:28:00,40.3,39.6,30.08,SSE,155,0.0,3.0,97,0.00,,,0.06,0.0,meteohub,2013-01-03 02:28:00,
2013-01-02 21:33:00,40.1,39.4,30.08,SSE,155,1.0,3.0,97,0.00,,,0.06,0.0,meteohub,2013-01-03 02:33:00,
2013-01-02 21:38:00,40.3,39.6,30.09,SSE,155,0.0,3.0,97,0.00,,,0.06,0.0,meteohub,2013-01-03 02:38:00,
2013-01-02 21:43:00,40.3,39.6,30.09,South,180,0.0,3.0,97,0.00,,,0.06,0.0,meteohub,2013-01-03 02:43:00,
2013-01-02 21:48:00,40.3,39.6,30.09,South,190,0.0,2.0,97,0.00,,,0.06,0.0,meteohub,2013-01-03 02:48:00,
2013-01-02 21:53:00,40.3,39.6,30.10,South,190,1.0,5.0,97,0.00,,,0.06,0.0,meteohub,2013-01-03 02:53:00,
2013-01-02 21:58:00,40.3,39.6,30.10,South,190,1.0,5.0,97,0.00,,,0.06,0.0,meteohub,2013-01-03 02:58:00,
2013-01-02 22:04:00,40.3,39.6,30.10,SSW,200,0.0,3.0,97,0.00,,,0.06,0.0,meteohub,2013-01-03 03:04:00,
2013-01-02 22:09:00,40.3,39.6,30.11,SSW,202,0.0,3.0,97,0.00,,,0.06,0.0,meteohub,2013-01-03 03:09:00,
2013-01-02 22:14:00,40.1,39.4,30.11,South,190,0.0,2.0,97,0.00,,,0.06,0.0,meteohub,2013-01-03 03:14:00,
2013-01-02 22:19:00,39.9,39.2,30.10,SSW,211,4.0,4.0,97,0.00,,,0.06,0.0,meteohub,2013-01-03 03:19:00,
2013-01-02 22:24:00,39.9,39.2,30.10,SE,145,0.0,5.0,97,0.00,,,0.06,0.0,meteohub,2013-01-03 03:24:00,
2013-01-02 22:30:00,39.9,39.2,30.10,SSE,158,0.0,5.0,97,0.00,,,0.06,0.0,meteohub,2013-01-03 03:30:00,
2013-01-02 22:37:00,39.9,39.2,30.10,SW,223,0.0,3.0,97,0.00,,,0.06,0.0,meteohub,2013-01-03 03:37:00,
2013-01-02 22:43:00,39.7,39.0,30.09,South,190,0.0,3.0,97,0.00,,,0.06,0.0,meteohub,2013-01-03 03:43:00,
2013-01-02 22:48:00,39.7,39.0,30.09,South,190,0.0,3.0,97,0.00,,,0.06,0.0,meteohub,2013-01-03 03:48:00,
2013-01-02 22:53:00,39.7,39.0,30.09,South,191,0.0,3.0,97,0.00,,,0.06,0.0,meteohub,2013-01-03 03:53:00,
2013-01-02 22:58:00,39.7,39.0,30.09,South,191,0.0,3.0,97,0.00,,,0.06,0.0,meteohub,2013-01-03 03:58:00,
2013-01-02 23:03:00,39.7,39.0,30.09,South,191,1.0,3.0,97,0.00,,,0.06,0.0,meteohub,2013-01-03 04:03:00,
2013-01-02 23:08:00,39.7,39.0,30.09,South,191,0.0,3.0,97,0.00,,,0.06,0.0,meteohub,2013-01-03 04:08:00,
2013-01-02 23:13:00,39.6,38.8,30.08,SSW,203,1.0,2.0,97,0.00,,,0.06,0.0,meteohub,2013-01-03 04:13:00,
2013-01-02 23:18:00,39.6,38.8,30.08,SSW,203,0.0,2.0,97,0.00,,,0.06,0.0,meteohub,2013-01-03 04:18:00,
2013-01-02 23:23:00,39.6,38.8,30.08,SSW,203,0.0,2.0,97,0.00,,,0.06,0.0,meteohub,2013-01-03 04:23:00,
2013-01-02 23:29:00,39.6,38.8,30.08,SSW,203,1.0,2.0,97,0.00,,,0.06,0.0,meteohub,2013-01-03 04:29:00,
2013-01-02 23:34:00,39.6,38.8,30.09,SSW,203,0.0,1.0,97,0.00,,,0.06,0.0,meteohub,2013-01-03 04:34:00,
2013-01-02 23:39:00,39.6,38.8,30.08,SSW,203,0.0,2.0,97,0.00,,,0.06,0.0,meteohub,2013-01-03 04:39:00,
2013-01-02 23:44:00,39.6,38.8,30.08,SSW,203,0.0,2.0,97,0.00,,,0.06,0.0,meteohub,2013-01-03 04:44:00,
2013-01-02 23:49:00,39.6,38.8,30.08,SSW,203,0.0,2.0,97,0.00,,,0.06,0.0,meteohub,2013-01-03 04:49:00,
2013-01-02 23:54:00,39.4,38.7,30.07,SSW,203,0.0,2.0,97,0.00,,,0.06,0.0,meteohub,2013-01-03 04:54:00,
2013-01-02 23:59:00,39.4,38.7,30.07,SSW,203,0.0,3.0,97,0.00,,,0.06,0.0,meteohub,2013-01-03 04:59:00,